Time;durP1;ratioP1;P1;durP2;ratioP2;P2;SDS_P1;SDS_P2;PMS_P1;PMS_P2;Temp;Humidity;BMP_temperature;BMP_pressure;BME280_temperature;BME280_humidity;BME280_pressure;Samples;Min_cycle;Max_cycle;Signal;HPM_P1;HPM_P2
2022/01/07 00:00:06;;;;;;;3.67;3.35;;;6.40;99.90;;;;;;5028466;28;20712;-72
2022/01/07 00:02:39;;;;;;;4.40;3.40;;;6.40;99.90;;;;;;5024068;28;20606;-73
2022/01/07 00:05:10;;;;;;;4.45;3.60;;;6.40;99.90;;;;;;5027983;28;20217;-72
2022/01/07 00:07:38;;;;;;;3.72;3.30;;;6.40;99.90;;;;;;5027832;28;20217;-73
2022/01/07 00:10:08;;;;;;;4.80;3.83;;;6.40;99.90;;;;;;5027167;28;20201;-73
2022/01/07 00:12:37;;;;;;;6.53;3.60;;;6.40;99.90;;;;;;5021290;28;20229;-72
2022/01/07 00:15:06;;;;;;;3.58;3.03;;;6.40;99.90;;;;;;5027808;28;20617;-72
2022/01/07 00:17:35;;;;;;;6.80;3.47;;;6.40;99.90;;;;;;5021301;28;20740;-73
2022/01/07 00:20:04;;;;;;;3.60;3.00;;;6.40;99.90;;;;;;5028117;28;20808;-72
2022/01/07 00:22:34;;;;;;;6.65;2.85;;;6.40;99.90;;;;;;5027432;28;20271;-72
2022/01/07 00:25:02;;;;;;;4.70;3.30;;;6.40;99.90;;;;;;5026693;28;20225;-72
2022/01/07 00:27:30;;;;;;;4.70;3.20;;;6.40;99.90;;;;;;5026292;28;20263;-72
2022/01/07 00:29:59;;;;;;;4.80;3.47;;;6.40;99.90;;;;;;5027962;28;20251;-72
2022/01/07 00:32:27;;;;;;;4.90;3.25;;;6.40;99.90;;;;;;5023991;28;20224;-72
2022/01/07 00:34:55;;;;;;;4.82;2.88;;;6.30;99.90;;;;;;5027483;28;20200;-72
2022/01/07 00:37:23;;;;;;;2.90;2.70;;;6.40;99.90;;;;;;5027548;28;20224;-72
2022/01/07 00:39:53;;;;;;;3.47;2.90;;;6.40;99.90;;;;;;5026162;28;20198;-73
2022/01/07 00:42:21;;;;;;;3.97;2.88;;;6.40;99.90;;;;;;5027690;28;20213;-72
2022/01/07 00:44:49;;;;;;;4.20;2.95;;;6.40;99.90;;;;;;5028117;28;20201;-73
2022/01/07 00:47:17;;;;;;;3.97;3.53;;;6.40;99.90;;;;;;5025585;28;20595;-73
2022/01/07 00:49:45;;;;;;;5.80;3.22;;;6.40;99.90;;;;;;5027812;28;20209;-72
2022/01/07 00:52:14;;;;;;;3.90;3.00;;;6.40;99.90;;;;;;5026696;28;20235;-72
2022/01/07 00:54:42;;;;;;;4.20;3.17;;;6.40;99.90;;;;;;5022971;28;20195;-73
2022/01/07 00:57:11;;;;;;;3.33;3.05;;;6.40;99.90;;;;;;5026996;28;20239;-72
2022/01/07 00:59:40;;;;;;;4.90;2.88;;;6.40;99.90;;;;;;5027548;28;20194;-73
2022/01/07 01:02:09;;;;;;;4.00;3.00;;;6.40;99.90;;;;;;5023344;28;20304;-73
2022/01/07 01:04:43;;;;;;;3.63;2.90;;;6.40;99.90;;;;;;5027616;28;20212;-73
2022/01/07 01:07:11;;;;;;;3.25;2.70;;;6.30;99.90;;;;;;5026862;28;20740;-74
2022/01/07 01:09:40;;;;;;;3.58;2.83;;;6.30;99.90;;;;;;5018464;28;20224;-73
2022/01/07 01:12:12;;;;;;;4.00;2.97;;;6.30;99.90;;;;;;5031263;28;20213;-73
2022/01/07 01:14:41;;;;;;;3.60;2.50;;;6.30;99.90;;;;;;5030055;28;20245;-73
2022/01/07 01:17:09;;;;;;;2.92;2.70;;;6.30;99.90;;;;;;5024506;28;20220;-73
2022/01/07 01:19:40;;;;;;;3.63;2.60;;;6.30;99.90;;;;;;5031487;28;20602;-72
2022/01/07 01:22:09;;;;;;;3.10;2.60;;;6.30;99.90;;;;;;5031115;28;20213;-76
2022/01/07 01:24:37;;;;;;;3.35;2.92;;;6.30;99.90;;;;;;5025959;28;20217;-72
2022/01/07 01:27:05;;;;;;;3.35;2.65;;;6.30;99.90;;;;;;5030825;28;20387;-73
2022/01/07 01:29:35;;;;;;;3.50;3.15;;;6.30;99.90;;;;;;5031340;28;20200;-73
2022/01/07 01:32:04;;;;;;;2.90;2.70;;;6.30;99.90;;;;;;5027482;28;20213;-72
2022/01/07 01:34:33;;;;;;;6.47;3.80;;;6.30;99.90;;;;;;5029829;28;20324;-72
2022/01/07 01:37:01;;;;;;;2.75;2.55;;;6.30;99.90;;;;;;5030793;28;20657;-72
2022/01/07 01:39:29;;;;;;;3.28;2.55;;;6.30;99.90;;;;;;5030761;28;20204;-73
2022/01/07 01:41:58;;;;;;;3.90;2.80;;;6.30;99.90;;;;;;5015082;28;20631;-73
2022/01/07 01:44:26;;;;;;;4.57;3.10;;;6.30;99.90;;;;;;5030694;28;20259;-72
2022/01/07 01:46:56;;;;;;;2.83;2.50;;;6.30;99.90;;;;;;5016116;28;20645;-73
2022/01/07 01:49:24;;;;;;;4.18;2.78;;;6.30;99.90;;;;;;5030201;28;20196;-73
2022/01/07 01:51:53;;;;;;;3.70;2.80;;;6.30;99.90;;;;;;5030497;28;20221;-72
2022/01/07 01:54:21;;;;;;;7.72;3.00;;;6.30;99.90;;;;;;5027815;28;20386;-72
2022/01/07 01:56:49;;;;;;;3.42;3.08;;;6.30;99.90;;;;;;5029824;28;20668;-72
2022/01/07 01:59:24;;;;;;;3.70;2.67;;;6.30;99.90;;;;;;5030814;28;20198;-73
2022/01/07 02:01:53;;;;;;;3.10;2.90;;;6.30;99.90;;;;;;5016563;28;20229;-72
2022/01/07 02:04:24;;;;;;;3.15;2.40;;;6.30;99.90;;;;;;5030434;28;20185;-72
2022/01/07 02:06:53;;;;;;;3.03;2.50;;;6.30;99.90;;;;;;5030069;28;20229;-72
2022/01/07 02:09:27;;;;;;;3.88;3.00;;;6.30;99.90;;;;;;5014370;28;20725;-74
2022/01/07 02:11:55;;;;;;;3.00;2.47;;;6.30;99.90;;;;;;5026372;28;20220;-73
2022/01/07 02:14:23;;;;;;;3.03;2.75;;;6.30;99.90;;;;;;5028776;28;20200;-72
2022/01/07 02:16:51;;;;;;;6.03;2.17;;;6.30;99.90;;;;;;5016629;28;20230;-72
2022/01/07 02:19:19;;;;;;;3.70;3.40;;;6.30;99.90;;;;;;5029695;28;20544;-72
2022/01/07 02:21:49;;;;;;;3.47;2.70;;;6.30;99.90;;;;;;5029702;28;20225;-72
2022/01/07 02:24:17;;;;;;;3.53;2.70;;;6.30;99.90;;;;;;5028294;28;20669;-72
2022/01/07 02:26:47;;;;;;;3.80;3.03;;;6.30;99.90;;;;;;5030491;28;20225;-73
2022/01/07 02:29:15;;;;;;;7.32;2.90;;;6.30;99.90;;;;;;5029084;28;20192;-72
2022/01/07 02:31:43;;;;;;;4.50;2.92;;;6.30;99.90;;;;;;5019403;28;20782;-73
2022/01/07 02:34:11;;;;;;;2.67;2.42;;;6.30;99.90;;;;;;5029586;28;20659;-73
2022/01/07 02:36:39;;;;;;;2.85;2.47;;;6.30;99.90;;;;;;5029499;28;20590;-74
2022/01/07 02:39:09;;;;;;;5.90;2.70;;;6.30;99.90;;;;;;5029065;28;20284;-73
2022/01/07 02:41:37;;;;;;;4.35;2.80;;;6.30;99.90;;;;;;5029437;28;20319;-72
2022/01/07 02:44:06;;;;;;;3.90;2.40;;;6.30;99.90;;;;;;5012453;28;20221;-73
2022/01/07 02:46:34;;;;;;;3.42;3.13;;;6.30;99.90;;;;;;5022838;28;20229;-73
2022/01/07 02:49:08;;;;;;;2.95;2.60;;;6.20;99.90;;;;;;5029603;28;20232;-73
2022/01/07 02:51:37;;;;;;;5.18;3.22;;;6.30;99.90;;;;;;5029508;28;20231;-72
2022/01/07 02:54:06;;;;;;;3.17;2.58;;;6.30;99.90;;;;;;5029493;28;20683;-72
2022/01/07 02:56:36;;;;;;;3.97;2.63;;;6.20;99.90;;;;;;5027981;28;20761;-73
2022/01/07 02:59:05;;;;;;;2.95;2.42;;;6.20;99.90;;;;;;5029814;28;20192;-73
2022/01/07 03:01:34;;;;;;;5.15;2.10;;;6.30;99.90;;;;;;5022356;28;20231;-73
2022/01/07 03:04:04;;;;;;;2.75;2.55;;;6.20;99.90;;;;;;5029288;28;20189;-73
2022/01/07 03:06:33;;;;;;;4.60;2.90;;;6.20;99.90;;;;;;5029072;28;20240;-72
2022/01/07 03:09:01;;;;;;;3.28;2.03;;;6.20;99.90;;;;;;5029147;28;20201;-72
2022/01/07 03:11:29;;;;;;;3.72;2.83;;;6.20;99.90;;;;;;5026939;28;20225;-72
2022/01/07 03:13:58;;;;;;;4.65;2.90;;;6.20;99.90;;;;;;5029004;28;20201;-72
2022/01/07 03:16:27;;;;;;;5.00;2.30;;;6.20;99.90;;;;;;5017627;28;20236;-72
2022/01/07 03:18:55;;;;;;;2.80;2.05;;;6.20;99.90;;;;;;5025337;28;20189;-73
2022/01/07 03:21:23;;;;;;;2.90;2.55;;;6.20;99.90;;;;;;5028666;28;20220;-73
2022/01/07 03:23:51;;;;;;;3.30;2.45;;;6.20;99.90;;;;;;5028980;28;20594;-73
2022/01/07 03:26:19;;;;;;;3.78;3.15;;;6.20;99.90;;;;;;5026538;28;20666;-73
2022/01/07 03:28:47;;;;;;;3.08;2.40;;;6.20;99.90;;;;;;5028895;28;20630;-72
2022/01/07 03:31:17;;;;;;;2.22;2.03;;;6.20;99.90;;;;;;5020010;28;20229;-72
2022/01/07 03:33:45;;;;;;;3.08;2.70;;;6.20;99.90;;;;;;5009957;28;20210;-73
2022/01/07 03:36:13;;;;;;;4.25;2.55;;;6.20;99.90;;;;;;5028238;28;20228;-73
2022/01/07 03:38:41;;;;;;;2.72;2.33;;;6.20;99.90;;;;;;5028625;28;20196;-72
2022/01/07 03:41:09;;;;;;;3.85;3.22;;;6.20;99.90;;;;;;5020291;28;20733;-72
2022/01/07 03:43:37;;;;;;;3.90;2.47;;;6.20;99.90;;;;;;5028550;28;20208;-72
2022/01/07 03:46:05;;;;;;;3.45;2.40;;;6.20;99.90;;;;;;5027441;28;20252;-72
2022/01/07 03:48:35;;;;;;;3.70;2.33;;;6.20;99.90;;;;;;5028936;28;20263;-72
2022/01/07 03:51:03;;;;;;;3.45;2.65;;;6.20;99.90;;;;;;5028271;28;20232;-72
2022/01/07 03:53:31;;;;;;;3.92;2.67;;;6.20;99.90;;;;;;5028943;28;20229;-72
2022/01/07 03:55:59;;;;;;;4.18;2.72;;;6.20;99.90;;;;;;5027027;28;20229;-72
2022/01/07 03:58:28;;;;;;;5.20;2.60;;;6.20;99.90;;;;;;5022214;28;20267;-73
2022/01/07 04:00:56;;;;;;;2.22;2.03;;;6.20;99.90;;;;;;5022532;28;20225;-73
2022/01/07 04:03:24;;;;;;;4.22;2.00;;;6.20;99.90;;;;;;5028611;28;20185;-72
2022/01/07 04:05:53;;;;;;;3.10;2.60;;;6.20;99.90;;;;;;5028447;28;20209;-73
2022/01/07 04:08:22;;;;;;;4.40;2.63;;;6.20;99.90;;;;;;5026887;28;20568;-72
2022/01/07 04:10:50;;;;;;;3.20;2.40;;;6.20;99.90;;;;;;5027916;28;20598;-73
2022/01/07 04:13:18;;;;;;;1.92;1.50;;;6.20;99.90;;;;;;5028380;28;20201;-73
2022/01/07 04:15:46;;;;;;;3.50;2.25;;;6.20;99.90;;;;;;5023278;28;20259;-73
2022/01/07 04:18:14;;;;;;;3.10;2.20;;;6.20;99.90;;;;;;5027777;28;20197;-72
2022/01/07 04:20:42;;;;;;;3.65;2.30;;;6.20;99.90;;;;;;5027640;28;20185;-72
2022/01/07 04:23:12;;;;;;;2.97;2.47;;;6.20;99.90;;;;;;5027647;28;20197;-74
2022/01/07 04:25:42;;;;;;;4.53;2.17;;;6.20;99.90;;;;;;5008274;28;20222;-72
2022/01/07 04:28:11;;;;;;;3.17;2.15;;;6.20;99.90;;;;;;5018523;28;20194;-72
2022/01/07 04:30:41;;;;;;;3.60;3.28;;;6.20;99.90;;;;;;5027288;28;20200;-72
2022/01/07 04:33:12;;;;;;;1.80;1.70;;;6.20;99.90;;;;;;5027685;28;20275;-72
2022/01/07 04:35:42;;;;;;;2.50;2.30;;;6.20;99.90;;;;;;5027391;28;20320;-73
2022/01/07 04:38:12;;;;;;;1.95;1.83;;;6.20;99.90;;;;;;5026931;28;20198;-73
2022/01/07 04:40:40;;;;;;;1.90;1.70;;;6.20;99.90;;;;;;5027206;28;20188;-73
2022/01/07 04:43:08;;;;;;;2.28;2.00;;;6.20;99.90;;;;;;5026614;28;20882;-73
2022/01/07 04:45:37;;;;;;;2.35;2.13;;;6.20;99.90;;;;;;5023494;28;20635;-73
2022/01/07 04:48:06;;;;;;;1.85;1.70;;;6.20;99.90;;;;;;5009581;28;20643;-74
2022/01/07 04:50:35;;;;;;;4.38;3.03;;;6.20;99.90;;;;;;5027081;28;20204;-71
2022/01/07 04:53:03;;;;;;;2.17;1.83;;;6.20;99.90;;;;;;5027388;28;20231;-73
2022/01/07 04:55:37;;;;;;;1.90;1.65;;;6.20;99.90;;;;;;5020133;28;20221;-73
2022/01/07 04:58:10;;;;;;;2.05;1.63;;;6.20;99.90;;;;;;5025219;28;20209;-72
2022/01/07 05:00:40;;;;;;;2.58;2.38;;;6.10;99.90;;;;;;5009490;28;20205;-72
2022/01/07 05:03:08;;;;;;;3.55;2.00;;;6.10;99.90;;;;;;5019158;28;20272;-73
2022/01/07 05:05:36;;;;;;;2.58;2.35;;;6.20;99.90;;;;;;5026973;28;20213;-72
2022/01/07 05:08:05;;;;;;;2.85;1.73;;;6.10;99.90;;;;;;5027473;28;20185;-73
2022/01/07 05:10:37;;;;;;;1.65;1.50;;;6.10;99.90;;;;;;5024507;28;20204;-73
2022/01/07 05:13:05;;;;;;;2.97;1.80;;;6.10;99.90;;;;;;5027618;28;20209;-73
2022/01/07 05:15:33;;;;;;;1.80;1.70;;;6.10;99.90;;;;;;5023715;28;20225;-73
2022/01/07 05:18:01;;;;;;;3.38;1.70;;;6.10;99.90;;;;;;5024063;28;20227;-73
2022/01/07 05:20:29;;;;;;;3.38;1.70;;;6.10;99.90;;;;;;5027735;28;20618;-73
2022/01/07 05:22:57;;;;;;;5.03;1.48;;;6.10;99.90;;;;;;5027099;28;20602;-73
2022/01/07 05:25:27;;;;;;;2.40;1.92;;;6.10;99.90;;;;;;5019098;28;20213;-73
2022/01/07 05:27:57;;;;;;;2.70;1.67;;;6.10;99.90;;;;;;5026864;28;20235;-72
2022/01/07 05:30:25;;;;;;;2.00;1.23;;;6.10;99.90;;;;;;5025470;28;20200;-72
2022/01/07 05:32:53;;;;;;;3.17;1.85;;;6.10;99.90;;;;;;5023307;28;20718;-72
2022/01/07 05:35:21;;;;;;;2.05;1.45;;;6.10;99.90;;;;;;5026763;28;20278;-71
2022/01/07 05:37:49;;;;;;;2.67;2.08;;;6.10;99.90;;;;;;5025436;28;20212;-73
2022/01/07 05:40:17;;;;;;;2.97;1.30;;;6.10;99.90;;;;;;5024883;28;20198;-73
2022/01/07 05:42:45;;;;;;;2.60;1.70;;;6.10;99.90;;;;;;5026567;28;20217;-73
2022/01/07 05:45:15;;;;;;;3.08;1.48;;;6.10;99.90;;;;;;5026262;28;20206;-73
2022/01/07 05:47:43;;;;;;;2.33;2.13;;;6.10;99.90;;;;;;5026641;28;20243;-72
2022/01/07 05:50:13;;;;;;;2.35;1.73;;;6.10;99.90;;;;;;5026865;28;20193;-74
2022/01/07 05:52:41;;;;;;;2.47;1.58;;;6.10;99.90;;;;;;5022786;28;20233;-73
2022/01/07 05:55:09;;;;;;;2.15;1.48;;;6.10;99.90;;;;;;5026192;28;20221;-72
2022/01/07 05:57:37;;;;;;;2.08;1.50;;;6.10;99.90;;;;;;5023469;28;20871;-73
2022/01/07 06:00:08;;;;;;;1.85;1.40;;;6.10;99.90;;;;;;5030637;28;20873;-74
2022/01/07 06:02:41;;;;;;;3.60;2.25;;;6.10;99.90;;;;;;5029628;28;20291;-73
2022/01/07 06:05:10;;;;;;;1.77;1.38;;;6.10;99.90;;;;;;5030399;28;20248;-72
2022/01/07 06:07:38;;;;;;;2.38;1.52;;;6.10;99.90;;;;;;5030198;28;20220;-72
2022/01/07 06:10:07;;;;;;;2.28;1.73;;;6.10;99.90;;;;;;5025087;28;20186;-72
2022/01/07 06:12:35;;;;;;;1.30;1.20;;;6.10;99.90;;;;;;5029793;28;20224;-73
2022/01/07 06:15:04;;;;;;;1.35;1.23;;;6.10;99.90;;;;;;5030185;28;20220;-72
2022/01/07 06:17:32;;;;;;;1.70;1.30;;;6.10;99.90;;;;;;5023410;28;20225;-74
2022/01/07 06:20:02;;;;;;;2.95;1.67;;;6.10;99.90;;;;;;5030449;28;20252;-73
2022/01/07 06:22:30;;;;;;;2.60;1.30;;;6.10;99.90;;;;;;5029689;28;20228;-72
2022/01/07 06:24:58;;;;;;;1.80;1.70;;;6.10;99.90;;;;;;5026837;28;20563;-72
2022/01/07 06:27:26;;;;;;;1.65;1.55;;;6.10;99.90;;;;;;5029382;28;20217;-74
2022/01/07 06:29:54;;;;;;;1.50;1.40;;;6.10;99.90;;;;;;5030330;28;20548;-73
2022/01/07 06:32:23;;;;;;;2.20;1.65;;;6.10;99.90;;;;;;5022765;28;20686;-74
2022/01/07 06:34:51;;;;;;;1.90;1.30;;;6.10;99.90;;;;;;5029870;28;20213;-73
2022/01/07 06:37:21;;;;;;;1.85;1.23;;;6.10;99.90;;;;;;5029209;28;20722;-72
2022/01/07 06:39:49;;;;;;;1.50;1.40;;;6.10;99.90;;;;;;5021554;28;20201;-72
2022/01/07 06:42:17;;;;;;;1.40;1.30;;;6.10;99.90;;;;;;5027142;28;20646;-73
2022/01/07 06:44:45;;;;;;;1.73;1.40;;;6.10;99.90;;;;;;5028660;28;20280;-74
2022/01/07 06:47:13;;;;;;;1.55;1.40;;;6.10;99.90;;;;;;5028645;28;20220;-72
2022/01/07 06:49:42;;;;;;;1.63;1.23;;;6.10;99.90;;;;;;5030279;28;20220;-72
2022/01/07 06:52:10;;;;;;;1.20;1.10;;;6.00;99.90;;;;;;5029613;28;20220;-72
2022/01/07 06:54:39;;;;;;;2.22;1.42;;;6.00;99.90;;;;;;5027672;28;20667;-72
2022/01/07 06:57:08;;;;;;;1.98;1.63;;;6.00;99.90;;;;;;5024314;28;20217;-73
2022/01/07 06:59:36;;;;;;;1.33;1.10;;;6.00;99.90;;;;;;5028624;28;20200;-72
2022/01/07 07:02:05;;;;;;;2.45;1.33;;;6.00;99.90;;;;;;5025797;28;20886;-72
2022/01/07 07:04:33;;;;;;;1.40;1.13;;;6.00;99.90;;;;;;5028126;28;20236;-73
2022/01/07 07:07:01;;;;;;;1.15;1.05;;;6.00;99.90;;;;;;5027162;28;20780;-72
2022/01/07 07:09:30;;;;;;;1.80;1.35;;;6.00;99.90;;;;;;5027203;28;20239;-73
2022/01/07 07:11:59;;;;;;;1.38;1.25;;;6.10;99.90;;;;;;5029083;28;20217;-73
2022/01/07 07:14:27;;;;;;;2.15;1.33;;;6.00;99.90;;;;;;5029456;28;20259;-72
2022/01/07 07:16:55;;;;;;;1.40;1.30;;;6.00;99.90;;;;;;5027516;28;20229;-72
2022/01/07 07:19:24;;;;;;;3.10;1.15;;;6.00;99.90;;;;;;5029465;28;20200;-73
2022/01/07 07:21:52;;;;;;;1.63;1.02;;;6.00;99.90;;;;;;5029715;28;20221;-73
2022/01/07 07:24:22;;;;;;;2.00;1.27;;;6.00;99.90;;;;;;5019201;28;20201;-73
2022/01/07 07:26:51;;;;;;;1.40;1.20;;;6.00;99.90;;;;;;5027386;28;20594;-74
2022/01/07 07:29:20;;;;;;;1.45;1.35;;;6.00;99.90;;;;;;5028857;28;20201;-73
2022/01/07 07:31:51;;;;;;;1.55;1.42;;;6.00;99.90;;;;;;5016146;28;20311;-72
2022/01/07 07:34:32;;;;;;;1.42;1.33;;;6.00;99.90;;;;;;5028268;28;20193;-72
2022/01/07 07:37:00;;;;;;;1.90;1.13;;;6.00;99.90;;;;;;5028746;28;20228;-73
2022/01/07 07:39:28;;;;;;;1.10;1.00;;;6.00;99.90;;;;;;5023028;28;20209;-72
2022/01/07 07:41:56;;;;;;;1.05;0.95;;;6.00;99.90;;;;;;5025276;28;20287;-74
2022/01/07 07:44:31;;;;;;;3.05;1.67;;;6.00;99.90;;;;;;5021221;28;20694;-72
2022/01/07 07:46:59;;;;;;;2.05;1.60;;;6.00;99.90;;;;;;5021715;28;20229;-72
2022/01/07 07:49:29;;;;;;;1.95;1.00;;;6.00;99.90;;;;;;5028719;28;20213;-72
2022/01/07 07:51:57;;;;;;;1.45;1.25;;;6.00;99.90;;;;;;5028559;28;20231;-73
2022/01/07 07:54:25;;;;;;;1.90;1.40;;;6.00;99.90;;;;;;5021313;28;20197;-73
2022/01/07 07:56:57;;;;;;;1.42;1.02;;;6.00;99.90;;;;;;5027338;28;20690;-72
2022/01/07 07:59:25;;;;;;;1.23;1.10;;;6.00;99.90;;;;;;5028369;28;20186;-72
2022/01/07 08:01:55;;;;;;;1.30;0.98;;;6.00;99.90;;;;;;5026118;28;20713;-74
2022/01/07 08:04:23;;;;;;;1.25;1.15;;;6.00;99.90;;;;;;5028358;28;20279;-72
2022/01/07 08:06:51;;;;;;;1.60;1.15;;;6.00;99.90;;;;;;5028265;28;20244;-72
2022/01/07 08:09:19;;;;;;;1.63;1.00;;;6.00;99.90;;;;;;5022107;28;20194;-73
2022/01/07 08:11:53;;;;;;;1.63;1.13;;;6.00;99.90;;;;;;5022879;28;20254;-73
2022/01/07 08:17:09;;;;;;;1.55;1.10;;;6.00;99.90;;;;;;5011078;28;20236;-73
2022/01/07 08:19:37;;;;;;;1.33;1.23;;;6.00;99.90;;;;;;5024786;28;20583;-72
2022/01/07 08:22:06;;;;;;;1.20;1.10;;;6.00;99.90;;;;;;5027811;28;20221;-72
2022/01/07 08:24:34;;;;;;;2.35;1.02;;;6.00;99.90;;;;;;5027623;28;20248;-72
2022/01/07 08:27:03;;;;;;;1.50;1.20;;;6.00;99.90;;;;;;5023396;28;20235;-72
2022/01/07 08:29:51;;;;;;;0.88;0.82;;;6.00;99.90;;;;;;5028154;28;20465;-72
2022/01/07 08:35:07;;;;;;;1.00;0.90;;;6.00;99.90;;;;;;5027726;28;20279;-73
2022/01/07 08:37:35;;;;;;;1.13;1.02;;;6.00;99.90;;;;;;5027086;28;20256;-73
2022/01/07 08:40:05;;;;;;;0.93;0.80;;;6.00;99.90;;;;;;5025724;28;20201;-72
2022/01/07 08:42:33;;;;;;;1.40;1.00;;;6.00;99.90;;;;;;5020845;28;20541;-72
2022/01/07 08:45:01;;;;;;;1.35;0.82;;;6.00;99.90;;;;;;5027428;28;20212;-72
2022/01/07 08:47:31;;;;;;;1.30;1.20;;;6.00;99.90;;;;;;5009518;28;20299;-72
2022/01/07 08:49:59;;;;;;;0.95;0.95;;;6.00;99.90;;;;;;5017585;28;20204;-72
2022/01/07 08:52:27;;;;;;;1.40;1.10;;;6.00;99.90;;;;;;5027553;28;20239;-72
2022/01/07 08:54:55;;;;;;;1.08;1.00;;;6.00;99.90;;;;;;5013461;28;20232;-73
2022/01/07 08:57:23;;;;;;;1.63;1.00;;;6.00;99.90;;;;;;5026718;28;20271;-72
2022/01/07 08:59:52;;;;;;;1.15;1.05;;;6.00;99.90;;;;;;5027188;28;20220;-74
2022/01/07 09:02:20;;;;;;;1.13;0.90;;;6.00;99.90;;;;;;5026011;28;20252;-72
2022/01/07 09:04:50;;;;;;;1.23;1.13;;;6.00;99.90;;;;;;5027391;28;20659;-72
2022/01/07 09:07:18;;;;;;;1.15;1.00;;;6.00;99.90;;;;;;5027073;28;20279;-73
2022/01/07 09:09:46;;;;;;;0.85;0.77;;;6.00;99.90;;;;;;5027196;28;20200;-73
2022/01/07 09:12:15;;;;;;;1.30;1.20;;;6.00;99.90;;;;;;5024985;28;20710;-73
2022/01/07 09:14:43;;;;;;;1.20;0.95;;;6.00;99.90;;;;;;5027119;28;20213;-73
2022/01/07 09:17:11;;;;;;;1.77;0.88;;;6.00;99.90;;;;;;5026119;28;20728;-72
2022/01/07 09:19:39;;;;;;;0.70;0.60;;;6.00;99.90;;;;;;5026997;28;20247;-72
2022/01/07 09:22:09;;;;;;;1.30;0.95;;;6.00;99.90;;;;;;5025722;28;20707;-74
2022/01/07 09:24:37;;;;;;;0.88;0.80;;;6.00;99.90;;;;;;5018034;28;20209;-72
2022/01/07 09:27:05;;;;;;;1.17;0.82;;;6.00;99.90;;;;;;5020409;28;20220;-73
2022/01/07 09:29:33;;;;;;;1.08;0.85;;;6.00;99.90;;;;;;5027264;28;20291;-72
2022/01/07 09:32:02;;;;;;;1.40;0.82;;;6.00;99.90;;;;;;5029118;28;20220;-72
2022/01/07 09:34:30;;;;;;;0.70;0.70;;;6.00;99.90;;;;;;5031545;28;20662;-72
2022/01/07 09:37:04;;;;;;;1.02;0.90;;;6.00;99.90;;;;;;5026912;28;20251;-72
2022/01/07 09:39:33;;;;;;;0.95;0.75;;;6.00;99.90;;;;;;5030858;28;20193;-74
2022/01/07 09:42:02;;;;;;;1.05;0.90;;;6.00;99.90;;;;;;5030113;28;20221;-72
2022/01/07 09:44:31;;;;;;;1.23;0.90;;;6.00;99.90;;;;;;5030860;28;20646;-72
2022/01/07 09:46:59;;;;;;;0.85;0.70;;;6.00;99.90;;;;;;5016005;28;20260;-72
2022/01/07 09:49:33;;;;;;;1.02;0.82;;;6.00;99.90;;;;;;5014175;28;20297;-73
2022/01/07 09:52:02;;;;;;;1.05;0.90;;;6.00;99.90;;;;;;5030812;28;20687;-72
2022/01/07 09:54:30;;;;;;;0.98;0.90;;;6.00;99.90;;;;;;5030083;28;20200;-72
2022/01/07 09:57:00;;;;;;;0.80;0.80;;;6.00;99.90;;;;;;5027166;28;20724;-73
2022/01/07 09:59:28;;;;;;;0.93;0.70;;;6.00;99.90;;;;;;5030905;28;20733;-72
2022/01/07 10:02:00;;;;;;;1.30;0.80;;;6.00;99.90;;;;;;5026884;28;20229;-72
2022/01/07 10:04:31;;;;;;;0.75;0.75;;;6.00;99.90;;;;;;5029592;28;20220;-72
2022/01/07 10:07:13;;;;;;;1.10;0.90;;;6.00;99.90;;;;;;5030321;28;20233;-72
2022/01/07 10:09:42;;;;;;;1.80;1.08;;;6.00;99.90;;;;;;5031074;28;20717;-72
2022/01/07 10:12:12;;;;;;;1.05;0.80;;;6.00;99.90;;;;;;5029296;28;20220;-73
2022/01/07 10:14:40;;;;;;;0.80;0.80;;;6.00;99.90;;;;;;5030721;28;20631;-73
2022/01/07 10:17:08;;;;;;;1.08;0.90;;;6.00;99.90;;;;;;5015310;28;20322;-74
2022/01/07 10:19:38;;;;;;;1.95;0.80;;;6.00;99.90;;;;;;5030446;28;20196;-72
2022/01/07 10:22:09;;;;;;;1.15;1.00;;;6.00;99.90;;;;;;5030078;28;20703;-73
2022/01/07 10:24:52;;;;;;;1.00;0.75;;;6.00;99.90;;;;;;5029461;28;20207;-72
2022/01/07 10:27:23;;;;;;;1.10;1.00;;;6.00;99.90;;;;;;5029337;28;20212;-73
2022/01/07 10:29:52;;;;;;;1.15;1.00;;;6.00;99.90;;;;;;5029340;28;20589;-72
2022/01/07 10:32:26;;;;;;;0.73;0.70;;;6.00;99.90;;;;;;5025237;28;20312;-73
2022/01/07 10:35:13;;;;;;;1.00;0.90;;;6.00;99.90;;;;;;5029567;28;20193;-72
2022/01/07 10:37:56;;;;;;;0.80;0.80;;;6.00;99.90;;;;;;5025926;28;20213;-73
2022/01/07 10:40:28;;;;;;;1.02;0.82;;;6.00;99.90;;;;;;5029345;28;20201;-73
2022/01/07 10:43:09;;;;;;;0.95;0.70;;;6.00;99.90;;;;;;5028174;28;20592;-73
2022/01/07 10:45:38;;;;;;;1.63;0.90;;;6.00;99.90;;;;;;5020312;28;20275;-72
2022/01/07 10:48:07;;;;;;;1.17;0.75;;;6.00;99.90;;;;;;5026661;28;20239;-71
2022/01/07 10:50:38;;;;;;;3.47;1.08;;;6.00;99.90;;;;;;5029015;28;20644;-72
2022/01/07 10:53:30;;;;;;;0.85;0.77;;;6.00;99.90;;;;;;5019455;28;20216;-72
2022/01/07 10:56:08;;;;;;;0.80;0.60;;;6.00;99.90;;;;;;5013205;28;20233;-72
2022/01/07 10:59:01;;;;;;;1.50;0.98;;;6.00;99.90;;;;;;5029978;28;20264;-73
2022/01/07 11:01:38;;;;;;;1.00;0.80;;;6.00;99.90;;;;;;5021357;28;20271;-72
2022/01/07 11:04:09;;;;;;;1.35;0.90;;;6.00;99.90;;;;;;5029906;28;20238;-73
2022/01/07 11:06:38;;;;;;;0.80;0.80;;;6.00;99.90;;;;;;5022186;28;20275;-72
2022/01/07 11:09:09;;;;;;;1.88;1.15;;;6.00;99.90;;;;;;5018048;28;20233;-73
2022/01/07 11:11:46;;;;;;;1.00;0.65;;;6.00;99.90;;;;;;5029508;28;20681;-73
2022/01/07 11:14:22;;;;;;;1.02;0.80;;;6.00;99.90;;;;;;5028494;28;20177;-72
2022/01/07 11:16:51;;;;;;;1.20;0.80;;;6.00;99.90;;;;;;5026909;28;20227;-72
2022/01/07 11:19:21;;;;;;;1.05;0.95;;;6.00;99.90;;;;;;5029160;28;20190;-72
2022/01/07 11:21:54;;;;;;;1.45;1.00;;;6.00;99.90;;;;;;5028522;28;20232;-72
2022/01/07 11:24:40;;;;;;;1.88;1.05;;;6.00;99.90;;;;;;5020804;28;20209;-72
2022/01/07 11:27:10;;;;;;;1.20;0.93;;;6.00;99.90;;;;;;5020163;28;20217;-71
2022/01/07 11:29:45;;;;;;;2.15;0.80;;;6.10;99.90;;;;;;5028957;28;20188;-72
2022/01/07 11:32:32;;;;;;;0.98;0.90;;;6.00;99.90;;;;;;5022292;28;20217;-72
2022/01/07 11:35:45;;;;;;;1.00;0.73;;;6.00;99.90;;;;;;5028921;28;20255;-73
2022/01/07 11:38:31;;;;;;;1.00;0.90;;;6.00;99.90;;;;;;5018327;28;20220;-72
2022/01/07 11:41:00;;;;;;;1.90;1.10;;;6.00;99.90;;;;;;5026295;28;20267;-73
2022/01/07 11:43:35;;;;;;;1.65;0.90;;;6.00;99.90;;;;;;5029372;28;20208;-73
2022/01/07 11:46:27;;;;;;;1.23;1.05;;;6.00;99.90;;;;;;5022125;28;20234;-73
2022/01/07 11:48:56;;;;;;;1.30;1.20;;;6.00;99.90;;;;;;5029311;28;20287;-73
2022/01/07 11:51:35;;;;;;;4.22;1.20;;;6.10;99.90;;;;;;5028781;28;20237;-73
2022/01/07 11:54:13;;;;;;;2.10;0.95;;;6.00;99.90;;;;;;5017391;28;20190;-74
2022/01/07 11:56:45;;;;;;;1.35;1.10;;;6.00;99.90;;;;;;5016858;28;20248;-73
2022/01/07 11:59:25;;;;;;;1.27;1.02;;;6.10;99.90;;;;;;5028866;28;20193;-74
2022/01/07 12:02:05;;;;;;;2.38;1.63;;;6.00;99.90;;;;;;5022419;28;20255;-73
2022/01/07 12:04:35;;;;;;;1.08;1.00;;;6.10;99.90;;;;;;5028235;28;20221;-72
2022/01/07 12:07:08;;;;;;;1.58;1.20;;;6.10;99.90;;;;;;5026152;28;20673;-73
2022/01/07 12:09:40;;;;;;;1.00;0.90;;;6.10;99.90;;;;;;5028495;28;20193;-73
2022/01/07 12:12:15;;;;;;;3.88;1.20;;;6.00;99.90;;;;;;5025607;28;20236;-71
2022/01/07 12:14:51;;;;;;;1.33;0.93;;;6.10;99.90;;;;;;5034526;28;20201;-73
2022/01/07 12:17:22;;;;;;;1.02;0.80;;;6.10;99.90;;;;;;5024525;28;20229;-72
2022/01/07 12:20:23;;;;;;;1.45;1.00;;;6.10;99.90;;;;;;5027825;28;20247;-72
2022/01/07 12:22:53;;;;;;;1.98;1.10;;;6.10;99.90;;;;;;5025713;28;20226;-72
2022/01/07 12:25:22;;;;;;;1.88;0.93;;;6.10;99.90;;;;;;5026701;28;20228;-72
2022/01/07 12:28:01;;;;;;;1.30;1.00;;;6.10;99.90;;;;;;5023706;28;20691;-73
2022/01/07 12:30:29;;;;;;;3.03;1.40;;;6.10;99.90;;;;;;5019330;28;20523;-72
2022/01/07 12:33:07;;;;;;;1.20;0.98;;;6.10;99.90;;;;;;5023178;28;20497;-72
2022/01/07 12:35:35;;;;;;;1.83;1.15;;;6.10;99.90;;;;;;5027627;28;20302;-72
2022/01/07 12:38:15;;;;;;;2.20;1.30;;;6.10;99.90;;;;;;5027017;28;20220;-72
2022/01/07 12:40:51;;;;;;;1.75;1.30;;;6.10;99.90;;;;;;5027652;28;20283;-71
2022/01/07 12:43:21;;;;;;;1.55;1.10;;;6.10;99.90;;;;;;5028145;28;20200;-73
2022/01/07 12:45:57;;;;;;;1.35;1.25;;;6.10;99.90;;;;;;5022589;28;20274;-71
2022/01/07 12:48:35;;;;;;;1.20;0.93;;;6.10;99.90;;;;;;5012837;28;20192;-71
2022/01/07 12:51:04;;;;;;;3.10;2.78;;;6.10;99.90;;;;;;5024595;28;20232;-73
2022/01/07 12:53:33;;;;;;;3.30;2.22;;;6.10;99.90;;;;;;5027960;28;20599;-73
2022/01/07 12:56:24;;;;;;;2.60;2.00;;;6.10;99.90;;;;;;5010350;28;20287;-72
2022/01/07 12:58:53;;;;;;;2.60;2.20;;;6.10;99.90;;;;;;5008334;28;20276;-72
2022/01/07 13:01:25;;;;;;;1.70;1.60;;;6.10;99.90;;;;;;5008232;28;20695;-72
2022/01/07 13:04:09;;;;;;;3.20;1.95;;;6.10;99.90;;;;;;5006967;28;20206;-73
2022/01/07 13:06:45;;;;;;;3.40;1.88;;;6.10;99.90;;;;;;5007032;28;20229;-72
2022/01/07 13:09:19;;;;;;;1.88;1.77;;;6.10;99.90;;;;;;5008574;28;20201;-73
2022/01/07 13:11:49;;;;;;;2.08;1.85;;;6.10;99.90;;;;;;5007843;28;20225;-74
2022/01/07 13:14:19;;;;;;;3.33;1.80;;;6.10;99.90;;;;;;5008123;28;20228;-72
2022/01/07 13:16:50;;;;;;;2.17;1.98;;;6.10;99.90;;;;;;5007789;28;20225;-72
2022/01/07 13:19:23;;;;;;;3.08;1.80;;;6.10;99.90;;;;;;5009939;28;20221;-73